MST,Max TemperatureF,Mean TemperatureF,Min TemperatureF,Max Dew PointF,MeanDew PointF,Min DewpointF,Max Humidity, Mean Humidity, Min Humidity, Max Sea Level PressureIn, Mean Sea Level PressureIn, Min Sea Level PressureIn, Max VisibilityMiles, Mean VisibilityMiles, Min VisibilityMiles, Max Wind SpeedMPH, Mean Wind SpeedMPH, Max Gust SpeedMPH,PrecipitationIn, CloudCover, Events, WindDirDegrees
2012-12-1,15,10,5,14,9,5,93,89,79,29.78,29.69,29.62,15,2,0,10,7,,0.02,6,Fog-Snow,155
2012-12-2,12,8,4,10,7,3,92,87,81,29.59,29.49,29.40,10,3,0,8,3,,0.12,8,Fog-Snow,66
2012-12-3,32,15,-2,30,10,-6,100,76,44,30.11,29.94,29.85,20,15,6,17,5,22,0.00,5,,256
2012-12-4,44,26,7,27,23,16,86,66,46,29.93,29.68,29.45,20,16,15,21,11,26,0.00,4,,186
2012-12-5,35,28,21,27,19,7,100,70,42,30.02,29.74,29.56,20,13,3,22,9,25,0.04,5,Snow,278
2012-12-6,31,21,11,14,10,9,73,55,40,30.02,29.98,29.77,20,16,15,12,7,,0.00,6,,265
2012-12-7,21,12,3,12,8,3,92,81,65,29.97,29.89,29.67,20,16,15,7,4,,0.00,4,,315
2012-12-8,7,2,-9,1,-3,-15,85,73,62,30.45,30.31,30.11,20,14,5,17,11,24,0.01,5,Snow,53
2012-12-9,29,8,-13,14,3,-17,86,64,34,30.42,30.10,29.67,20,17,15,33,10,40,0.00,4,Snow,280
2012-12-10,34,22,9,18,12,7,86,61,37,29.97,29.94,29.85,20,14,0,20,8,,0.00,5,,302
2012-12-11,37,24,10,20,16,12,63,53,35,29.56,29.51,29.41,20,16,15,23,15,29,0.00,6,,290
2012-12-12,22,11,-2,21,8,-6,93,85,75,29.94,29.84,29.68,15,7,2,12,5,,0.08,6,Snow,110
2012-12-13,35,14,-6,18,10,-4,85,60,43,29.89,29.75,29.47,20,16,15,22,5,30,0.00,4,Snow,278
2012-12-14,30,19,8,16,11,3,85,58,37,29.92,29.72,29.61,15,15,15,16,9,,0.00,6,,318
2012-12-15,23,8,-6,12,1,-11,93,73,46,29.91,29.76,29.57,20,14,0,10,4,,0.00,4,Fog,275
2012-12-16,31,18,5,10,7,1,62,49,32,29.60,29.55,29.47,20,16,15,20,13,25,0.00,4,,256
2012-12-17,21,14,7,18,15,9,93,86,58,29.47,29.36,29.30,20,14,4,12,5,,0.00,7,,125
2012-12-18,20,9,-2,12,7,-6,92,77,59,29.98,29.85,29.70,20,16,15,10,5,,0.00,5,,309
2012-12-19,23,8,-7,5,-2,-11,78,57,28,30.01,29.93,29.63,20,16,15,8,4,,0.00,3,,211
2012-12-20,29,16,4,14,11,3,86,66,46,30.21,29.87,29.60,20,12,1,13,6,,0.00,5,,74
2012-12-21,5,0,-5,-4,-7,-9,85,73,57,30.37,30.21,30.01,20,17,15,8,5,,0.00,5,,33
2012-12-22,-2,-4,-7,-9,-10,-13,84,76,65,30.35,30.29,30.25,20,10,1,9,7,,0.08,7,Snow,120
2012-12-23,-3,-10,-16,-9,-14,-22,84,76,64,30.36,30.30,30.25,20,12,4,7,4,,0.16,7,Snow,349
2012-12-24,-2,-6,-13,-9,-11,-18,84,76,64,30.59,30.50,30.22,20,12,5,7,3,,0.01,7,Snow,111
2012-12-25,-5,-14,-22,-9,-17,-24,84,75,64,30.54,30.42,30.26,20,14,2,10,4,,0.00,5,Snow,133
2012-12-26,-5,-10,-14,-11,-16,-20,84,75,63,30.14,30.11,29.77,20,17,10,7,4,,0.00,3,,173
2012-12-27,9,-4,-18,5,-4,-17,85,81,68,30.15,30.10,29.80,15,15,15,7,4,,0.00,1,Fog,298
2012-12-28,30,10,-10,16,8,0,93,70,44,30.16,30.11,30.07,15,15,15,13,9,,0.00,4,,328
2012-12-29,28,20,12,21,14,7,86,73,54,30.16,30.10,30.02,15,15,15,15,10,17,0.00,7,,326
2012-12-30,25,12,0,10,3,-4,85,68,46,30.22,30.18,29.92,20,16,15,12,7,,0.00,3,,309
2012-12-31,29,18,8,20,16,10,79,68,50,30.20,30.14,29.98,20,16,15,14,9,,0.00,6,,327